Time;durP1;ratioP1;P1;durP2;ratioP2;P2;SDS_P1;SDS_P2;PMS_P1;PMS_P2;Temp;Humidity;BMP_temperature;BMP_pressure;BME280_temperature;BME280_humidity;BME280_pressure;Samples;Min_cycle;Max_cycle;Signal;HPM_P1;HPM_P2
2024/02/29 00:01:43;;;;;;;38.10;18.85;;;2.20;99.90;;;;;;5053127;28;20021;-70
2024/02/29 00:04:09;;;;;;;36.95;17.63;;;2.10;99.90;;;;;;5052783;28;20025;-71
2024/02/29 00:06:34;;;;;;;38.13;18.13;;;2.00;99.90;;;;;;5053173;28;20029;-70
2024/02/29 00:09:00;;;;;;;40.75;19.10;;;2.00;99.90;;;;;;5053045;28;20640;-71
2024/02/29 00:11:26;;;;;;;34.22;17.70;;;1.90;99.90;;;;;;5053260;28;20032;-70
2024/02/29 00:13:52;;;;;;;38.20;18.23;;;1.90;99.90;;;;;;5053218;28;20025;-71
2024/02/29 00:16:18;;;;;;;37.72;18.30;;;1.80;99.90;;;;;;5053321;28;20119;-70
2024/02/29 00:18:45;;;;;;;38.88;17.83;;;1.80;99.90;;;;;;5053015;28;20057;-70
2024/02/29 00:21:10;;;;;;;37.80;17.40;;;1.80;99.90;;;;;;5053028;28;20040;-70
2024/02/29 00:23:36;;;;;;;41.60;18.98;;;1.80;99.90;;;;;;5052619;28;20021;-70
2024/02/29 00:26:02;;;;;;;40.85;18.58;;;1.80;99.90;;;;;;5052661;28;20498;-70
2024/02/29 00:28:28;;;;;;;38.80;18.83;;;1.90;99.90;;;;;;5052862;28;20510;-70
2024/02/29 00:30:54;;;;;;;40.50;18.80;;;1.90;99.90;;;;;;5052963;28;20029;-70
2024/02/29 00:33:20;;;;;;;40.40;18.83;;;2.00;99.90;;;;;;5052997;28;20041;-70
2024/02/29 00:35:45;;;;;;;35.30;18.45;;;2.00;99.90;;;;;;5052770;28;20032;-70
2024/02/29 00:38:11;;;;;;;35.42;17.08;;;2.00;99.90;;;;;;5052886;28;20487;-70
2024/02/29 00:40:36;;;;;;;37.33;17.60;;;2.00;99.90;;;;;;5052903;28;20028;-70
2024/02/29 00:43:02;;;;;;;42.92;17.17;;;2.00;99.90;;;;;;5052471;28;20021;-70
2024/02/29 00:45:28;;;;;;;42.42;20.52;;;2.00;99.90;;;;;;5052855;28;20040;-71
2024/02/29 00:47:54;;;;;;;35.72;17.13;;;2.00;99.90;;;;;;5054632;28;20083;-70
2024/02/29 00:50:21;;;;;;;35.85;16.55;;;1.90;99.90;;;;;;5056206;28;20037;-70
2024/02/29 00:52:47;;;;;;;40.35;18.60;;;1.80;99.90;;;;;;5056714;28;20360;-70
2024/02/29 00:55:13;;;;;;;41.95;19.30;;;1.90;99.90;;;;;;5056514;28;20433;-71
2024/02/29 00:57:40;;;;;;;36.00;17.55;;;1.90;99.90;;;;;;5056476;28;20387;-71
2024/02/29 01:00:08;;;;;;;37.30;18.20;;;1.90;99.90;;;;;;5056449;28;20067;-71
2024/02/29 01:02:34;;;;;;;36.75;17.13;;;1.80;99.90;;;;;;5056335;28;20037;-71
2024/02/29 01:04:59;;;;;;;35.53;18.02;;;1.80;99.90;;;;;;5055861;28;20028;-71
2024/02/29 01:07:26;;;;;;;42.67;19.15;;;1.70;99.90;;;;;;5056248;28;20044;-70
2024/02/29 01:09:52;;;;;;;38.45;18.45;;;1.70;99.90;;;;;;5056033;28;20033;-70
2024/02/29 01:12:18;;;;;;;43.53;19.88;;;1.70;99.90;;;;;;5055955;28;20048;-70
2024/02/29 01:14:43;;;;;;;36.78;18.27;;;1.70;99.90;;;;;;5056179;28;20512;-70
2024/02/29 01:17:09;;;;;;;40.35;18.63;;;1.60;99.90;;;;;;5056138;28;20028;-70
2024/02/29 01:19:34;;;;;;;37.75;17.58;;;1.50;99.90;;;;;;5056110;28;20399;-70
2024/02/29 01:22:02;;;;;;;35.78;17.95;;;1.50;99.90;;;;;;5056014;28;20123;-70
2024/02/29 01:24:27;;;;;;;40.15;17.35;;;1.40;99.90;;;;;;5055644;28;20620;-70
2024/02/29 01:26:53;;;;;;;38.17;17.38;;;1.40;99.90;;;;;;5055754;28;20037;-70
2024/02/29 01:29:19;;;;;;;40.05;18.50;;;2.20;99.90;;;;;;5055916;28;20029;-71
2024/02/29 01:31:44;;;;;;;44.92;19.83;;;1.30;99.90;;;;;;5055372;28;20021;-70
2024/02/29 01:34:10;;;;;;;40.17;18.80;;;1.30;99.90;;;;;;5055793;28;20083;-70
2024/02/29 01:36:35;;;;;;;43.35;19.42;;;1.40;99.90;;;;;;5055396;28;20532;-70
2024/02/29 01:39:01;;;;;;;43.75;19.90;;;1.40;99.90;;;;;;5055347;28;20025;-71
2024/02/29 01:41:26;;;;;;;45.25;19.83;;;1.40;99.90;;;;;;5055773;28;20071;-70
2024/02/29 01:43:53;;;;;;;37.40;17.75;;;1.30;99.90;;;;;;5055581;28;20036;-70
2024/02/29 01:46:19;;;;;;;44.00;20.02;;;1.30;99.90;;;;;;5055547;28;20116;-70
2024/02/29 01:48:48;;;;;;;47.20;20.52;;;1.30;99.90;;;;;;5054848;28;20127;-70
2024/02/29 01:51:14;;;;;;;36.85;18.55;;;1.30;99.90;;;;;;5055039;28;20113;-70
2024/02/29 01:53:40;;;;;;;42.85;20.00;;;1.30;99.90;;;;;;5055029;28;20017;-71
2024/02/29 01:56:06;;;;;;;50.22;21.58;;;1.30;99.90;;;;;;5054989;28;20372;-70
2024/02/29 01:58:33;;;;;;;47.30;20.60;;;1.40;99.90;;;;;;5054914;28;20090;-70
2024/02/29 02:00:59;;;;;;;46.17;19.95;;;1.50;99.90;;;;;;5055360;28;20483;-71
2024/02/29 02:03:25;;;;;;;50.80;20.05;;;1.60;99.90;;;;;;5055202;28;20048;-70
2024/02/29 02:05:50;;;;;;;46.58;20.20;;;1.60;99.90;;;;;;5055320;28;20044;-70
2024/02/29 02:08:16;;;;;;;46.25;20.58;;;1.70;99.90;;;;;;5055057;28;20491;-70
2024/02/29 02:10:42;;;;;;;46.78;19.85;;;1.70;99.90;;;;;;5055129;28;20036;-71
2024/02/29 02:13:07;;;;;;;44.90;20.45;;;1.80;99.90;;;;;;5055034;28;20390;-70
2024/02/29 02:15:33;;;;;;;49.53;21.38;;;1.90;99.90;;;;;;5054944;28;20016;-70
2024/02/29 02:17:59;;;;;;;44.78;21.60;;;2.00;99.90;;;;;;5055046;28;20498;-70
2024/02/29 02:20:24;;;;;;;53.95;21.13;;;2.10;99.90;;;;;;5054618;28;20025;-70
2024/02/29 02:22:50;;;;;;;42.83;19.92;;;2.20;99.90;;;;;;5054908;28;20067;-70
2024/02/29 02:25:16;;;;;;;48.70;21.23;;;2.20;99.90;;;;;;5054783;28;20120;-70
2024/02/29 02:27:42;;;;;;;47.00;20.40;;;2.30;99.90;;;;;;5054340;28;20111;-70
2024/02/29 02:30:08;;;;;;;47.80;20.67;;;2.30;99.90;;;;;;5054407;28;20132;-70
2024/02/29 02:32:35;;;;;;;41.92;18.63;;;2.30;99.90;;;;;;5054590;28;20028;-70
2024/02/29 02:35:01;;;;;;;41.35;19.48;;;2.20;99.90;;;;;;5054344;28;20446;-70
2024/02/29 02:37:27;;;;;;;52.28;20.40;;;2.20;99.90;;;;;;5054638;28;20024;-71
2024/02/29 02:39:52;;;;;;;47.88;20.17;;;2.30;99.90;;;;;;5054564;28;20021;-70
2024/02/29 02:42:18;;;;;;;49.55;21.00;;;2.40;99.90;;;;;;5054618;28;20035;-70
2024/02/29 02:44:43;;;;;;;46.38;20.08;;;2.50;99.90;;;;;;5054438;28;20111;-70
2024/02/29 02:47:09;;;;;;;44.45;20.13;;;2.60;99.90;;;;;;5054178;28;20578;-70
2024/02/29 02:49:34;;;;;;;42.53;18.88;;;2.60;99.90;;;;;;5054111;28;20035;-70
2024/02/29 02:52:00;;;;;;;46.78;20.30;;;2.70;99.90;;;;;;5054216;28;20152;-70
2024/02/29 02:54:25;;;;;;;44.50;19.52;;;2.70;99.90;;;;;;5054371;28;20025;-71
2024/02/29 02:56:51;;;;;;;41.90;18.88;;;2.70;99.90;;;;;;5054243;28;20033;-70
2024/02/29 02:59:17;;;;;;;42.22;18.92;;;2.70;99.90;;;;;;5054173;28;20032;-70
2024/02/29 03:01:42;;;;;;;42.55;19.08;;;2.60;99.90;;;;;;5054104;28;20462;-70
2024/02/29 03:04:08;;;;;;;41.20;19.08;;;2.60;99.90;;;;;;5053672;28;20132;-70
2024/02/29 03:06:33;;;;;;;40.08;17.73;;;2.60;99.90;;;;;;5054029;28;20032;-70
2024/02/29 03:08:59;;;;;;;42.13;18.52;;;2.50;99.90;;;;;;5053305;28;20036;-70
2024/02/29 03:11:24;;;;;;;43.55;18.20;;;2.50;99.90;;;;;;5053446;28;20079;-70
2024/02/29 03:13:50;;;;;;;36.60;18.80;;;2.40;99.90;;;;;;5053952;28;20029;-70
2024/02/29 03:16:23;;;;;;;44.78;18.92;;;2.40;99.90;;;;;;5053428;28;20028;-70
2024/02/29 03:18:49;;;;;;;42.15;17.88;;;2.40;99.90;;;;;;5054056;28;20033;-70
2024/02/29 03:21:15;;;;;;;43.72;18.80;;;2.40;99.90;;;;;;5053776;28;20048;-70
2024/02/29 03:23:40;;;;;;;45.75;20.08;;;2.40;99.90;;;;;;5053783;28;20029;-70
2024/02/29 03:26:06;;;;;;;48.22;20.40;;;2.60;99.90;;;;;;5053739;28;20037;-70
2024/02/29 03:28:32;;;;;;;42.83;19.00;;;2.60;99.90;;;;;;5053600;28;20501;-70
2024/02/29 03:30:59;;;;;;;44.30;18.95;;;2.60;99.90;;;;;;5053279;28;20021;-70
2024/02/29 03:33:25;;;;;;;40.60;17.50;;;2.60;99.90;;;;;;5053756;28;20025;-70
2024/02/29 03:35:51;;;;;;;41.85;18.13;;;2.60;99.90;;;;;;5053788;28;20542;-70
2024/02/29 03:38:17;;;;;;;43.22;18.05;;;2.50;99.90;;;;;;5053518;28;20479;-70
2024/02/29 03:40:43;;;;;;;40.00;18.65;;;2.50;99.90;;;;;;5053431;28;20429;-70
2024/02/29 03:43:08;;;;;;;39.13;17.50;;;2.40;99.90;;;;;;5053137;28;20029;-70
2024/02/29 03:45:34;;;;;;;40.17;16.65;;;2.40;99.90;;;;;;5053064;28;20029;-70
2024/02/29 03:47:59;;;;;;;43.10;18.08;;;2.40;99.90;;;;;;5052940;28;20124;-70
2024/02/29 03:50:26;;;;;;;39.38;18.05;;;2.50;99.90;;;;;;5053108;28;20036;-70
2024/02/29 03:52:51;;;;;;;44.85;18.75;;;2.50;99.90;;;;;;5052915;28;20126;-70
2024/02/29 03:55:17;;;;;;;42.47;18.00;;;2.50;99.90;;;;;;5053289;28;20029;-70
2024/02/29 03:57:43;;;;;;;39.72;18.63;;;2.60;99.90;;;;;;5053332;28;20028;-70
2024/02/29 04:00:10;;;;;;;43.10;19.27;;;2.50;99.90;;;;;;5053265;28;20033;-70
2024/02/29 04:02:37;;;;;;;41.03;18.08;;;2.50;99.90;;;;;;5053236;28;20035;-71
2024/02/29 04:05:05;;;;;;;44.53;18.65;;;2.40;99.90;;;;;;5052800;28;20544;-70
2024/02/29 04:07:30;;;;;;;39.03;17.10;;;2.30;99.90;;;;;;5053206;28;20082;-70
2024/02/29 04:09:56;;;;;;;37.83;16.40;;;2.30;99.90;;;;;;5052898;28;20033;-70
2024/02/29 04:12:22;;;;;;;37.78;17.67;;;2.20;99.90;;;;;;5053092;28;20021;-70
2024/02/29 04:14:47;;;;;;;37.55;17.67;;;2.10;99.90;;;;;;5053117;28;20031;-70
2024/02/29 04:17:13;;;;;;;39.15;16.30;;;2.10;99.90;;;;;;5053162;28;20025;-70
2024/02/29 04:19:38;;;;;;;37.55;16.35;;;1.90;99.90;;;;;;5053039;28;20032;-70
2024/02/29 04:22:04;;;;;;;31.25;15.65;;;1.90;99.90;;;;;;5055521;28;20364;-70
2024/02/29 04:24:29;;;;;;;35.58;16.05;;;1.90;99.90;;;;;;5057090;28;20537;-70
2024/02/29 04:26:55;;;;;;;32.00;15.68;;;1.90;99.90;;;;;;5056727;28;20017;-70
2024/02/29 04:29:20;;;;;;;38.15;16.27;;;1.90;99.90;;;;;;5057086;28;20032;-70
2024/02/29 04:31:48;;;;;;;33.10;15.75;;;1.80;99.90;;;;;;5056867;28;20025;-70
2024/02/29 04:34:14;;;;;;;36.15;16.52;;;1.80;99.90;;;;;;5056509;28;20047;-70
2024/02/29 04:36:39;;;;;;;38.67;16.58;;;1.90;99.90;;;;;;5056914;28;20061;-70
2024/02/29 04:39:05;;;;;;;39.22;16.25;;;1.90;99.90;;;;;;5056806;28;20116;-70
2024/02/29 04:41:30;;;;;;;41.67;17.60;;;1.90;99.90;;;;;;5056928;28;20415;-70
2024/02/29 04:43:56;;;;;;;32.78;15.90;;;1.90;99.90;;;;;;5056727;28;20510;-70
2024/02/29 04:46:21;;;;;;;32.65;15.63;;;2.00;99.90;;;;;;5056700;28;20044;-70
2024/02/29 04:48:47;;;;;;;39.88;16.42;;;1.90;99.90;;;;;;5056088;28;20052;-70
2024/02/29 04:51:12;;;;;;;34.00;15.77;;;2.00;99.90;;;;;;5056316;28;20025;-70
2024/02/29 04:53:38;;;;;;;34.10;15.65;;;2.00;99.90;;;;;;5056296;28;20061;-70
2024/02/29 04:56:05;;;;;;;36.53;15.38;;;2.10;99.90;;;;;;5056531;28;20028;-70
2024/02/29 04:58:31;;;;;;;37.53;16.40;;;2.20;99.90;;;;;;5056530;28;20052;-70
2024/02/29 05:00:57;;;;;;;34.65;15.57;;;2.20;99.90;;;;;;5056436;28;20036;-70
2024/02/29 05:03:23;;;;;;;38.22;16.00;;;2.30;99.90;;;;;;5056434;28;20028;-70
2024/02/29 05:05:49;;;;;;;36.20;15.73;;;2.40;99.90;;;;;;5056288;28;20116;-70
2024/02/29 05:08:14;;;;;;;32.67;15.75;;;2.50;99.90;;;;;;5056257;28;20029;-70
2024/02/29 05:10:40;;;;;;;32.95;15.18;;;2.60;99.90;;;;;;5056376;28;20060;-70
2024/02/29 05:13:06;;;;;;;37.20;15.70;;;2.70;99.90;;;;;;5055839;28;20035;-70
2024/02/29 05:15:31;;;;;;;33.15;15.00;;;2.80;95.60;;;;;;5055797;28;20029;-70
2024/02/29 05:17:58;;;;;;;35.30;15.00;;;2.90;87.60;;;;;;5056144;28;20082;-70
2024/02/29 05:20:23;;;;;;;35.08;15.30;;;2.90;72.20;;;;;;5056227;28;20029;-70
2024/02/29 05:22:53;;;;;;;31.20;13.77;;;3.00;65.20;;;;;;5055974;28;20040;-70
2024/02/29 05:25:19;;;;;;;35.20;14.45;;;3.00;52.80;;;;;;5055585;28;20028;-70
2024/02/29 05:27:45;;;;;;;32.88;13.05;;;3.00;48.90;;;;;;5055929;28;20500;-72
2024/02/29 05:30:11;;;;;;;29.38;13.52;;;3.00;45.00;;;;;;5055622;28;20041;-70
2024/02/29 05:32:36;;;;;;;30.38;14.07;;;3.00;38.90;;;;;;5054926;28;20120;-70
2024/02/29 05:35:03;;;;;;;30.30;16.80;;;3.00;35.40;;;;;;5055794;28;20057;-70
2024/02/29 05:37:29;;;;;;;41.65;17.50;;;3.10;29.00;;;;;;5055866;28;20021;-70
2024/02/29 05:39:58;;;;;;;34.75;17.33;;;3.10;20.80;;;;;;5055737;28;20029;-70
2024/02/29 05:42:26;;;;;;;31.63;15.18;;;3.10;15.50;;;;;;5055350;28;20029;-70
2024/02/29 05:44:52;;;;;;;28.48;14.02;;;3.10;10.90;;;;;;5055231;28;20076;-70
2024/02/29 05:47:18;;;;;;;28.83;14.05;;;3.10;7.80;;;;;;5055284;28;20412;-70
2024/02/29 05:49:43;;;;;;;27.13;12.98;;;3.10;2.40;;;;;;5055247;28;20030;-70
2024/02/29 05:52:09;;;;;;;26.17;13.20;;;3.10;1.00;;;;;;5055570;28;20053;-70
2024/02/29 05:54:35;;;;;;;28.33;12.50;;;3.10;1.00;;;;;;5055494;28;20028;-70
2024/02/29 05:57:00;;;;;;;27.45;13.05;;;3.10;1.00;;;;;;5055461;28;20049;-70
2024/02/29 05:59:26;;;;;;;24.58;11.90;;;3.20;1.00;;;;;;5055679;28;20087;-70
2024/02/29 06:01:51;;;;;;;24.08;11.10;;;3.20;1.00;;;;;;5055472;28;20483;-70
2024/02/29 06:04:17;;;;;;;29.42;12.38;;;3.10;1.00;;;;;;5055263;28;20041;-70
2024/02/29 06:06:43;;;;;;;27.92;11.43;;;3.10;1.00;;;;;;5055247;28;20116;-70
2024/02/29 06:09:12;;;;;;;24.80;11.50;;;3.20;1.00;;;;;;5054983;28;20025;-70
2024/02/29 06:11:38;;;;;;;23.52;11.15;;;3.30;1.00;;;;;;5055087;28;20029;-70
2024/02/29 06:14:05;;;;;;;22.23;11.27;;;3.50;1.00;;;;;;5055054;28;20394;-70
2024/02/29 06:16:31;;;;;;;25.58;10.80;;;3.60;1.00;;;;;;5055119;28;20475;-70
2024/02/29 06:18:56;;;;;;;21.73;10.60;;;3.60;1.00;;;;;;5054681;28;20031;-70
2024/02/29 06:21:22;;;;;;;23.15;10.65;;;3.60;1.00;;;;;;5055124;28;20029;-70
2024/02/29 06:23:48;;;;;;;24.50;11.23;;;3.60;1.00;;;;;;5054847;28;20037;-70
2024/02/29 06:26:14;;;;;;;21.58;10.70;;;3.60;1.00;;;;;;5054887;28;20033;-70
2024/02/29 06:28:39;;;;;;;23.15;10.88;;;3.70;1.00;;;;;;5054700;28;20399;-70
2024/02/29 06:31:06;;;;;;;19.02;10.25;;;3.90;1.00;;;;;;5054795;28;20025;-70
2024/02/29 06:33:31;;;;;;;21.63;10.52;;;4.10;1.00;;;;;;5054690;28;20063;-70
2024/02/29 06:35:57;;;;;;;22.42;10.82;;;4.20;1.00;;;;;;5054769;28;20467;-70
2024/02/29 06:38:23;;;;;;;20.73;9.73;;;4.40;1.00;;;;;;5054632;28;20368;-70
2024/02/29 06:40:48;;;;;;;24.17;10.35;;;4.70;1.00;;;;;;5054544;28;20021;-70
2024/02/29 06:43:14;;;;;;;22.73;11.05;;;5.10;1.00;;;;;;5054465;28;20021;-70
2024/02/29 06:45:47;;;;;;;17.85;9.88;;;5.50;99.90;;;;;;5054389;28;20059;-70
2024/02/29 06:48:13;;;;;;;21.48;10.00;;;5.80;99.90;;;;;;5053961;28;20438;-70
2024/02/29 06:50:38;;;;;;;19.70;9.88;;;6.00;99.90;;;;;;5054200;28;20078;-70
2024/02/29 06:53:04;;;;;;;19.50;9.52;;;6.20;99.90;;;;;;5053953;28;20025;-71
2024/02/29 06:55:29;;;;;;;22.52;9.88;;;6.60;95.60;;;;;;5053880;28;20021;-71
2024/02/29 06:57:55;;;;;;;20.95;9.68;;;6.90;99.90;;;;;;5054423;28;20033;-71
2024/02/29 07:00:20;;;;;;;18.05;9.23;;;7.40;68.10;;;;;;5053744;28;20037;-70
2024/02/29 07:02:46;;;;;;;17.75;9.25;;;8.00;1.00;;;;;;5054075;28;20669;-70
2024/02/29 07:05:11;;;;;;;17.25;9.30;;;8.60;1.00;;;;;;5054005;28;20074;-70
2024/02/29 07:07:37;;;;;;;17.23;8.75;;;9.10;1.00;;;;;;5053992;28;20033;-70
2024/02/29 07:10:06;;;;;;;13.15;7.72;;;9.90;1.00;;;;;;5053600;28;20059;-70
2024/02/29 07:12:32;;;;;;;12.27;7.18;;;10.50;1.00;;;;;;5053753;28;20025;-70
2024/02/29 07:14:57;;;;;;;13.82;7.45;;;11.10;1.00;;;;;;5053746;28;20457;-71
2024/02/29 07:17:23;;;;;;;11.30;6.70;;;11.50;99.90;;;;;;5053845;28;20124;-70
2024/02/29 07:19:48;;;;;;;13.00;7.53;;;12.20;99.90;;;;;;5053553;28;20071;-70
2024/02/29 07:22:14;;;;;;;13.98;6.85;;;12.50;1.00;;;;;;5053527;28;20032;-70
2024/02/29 07:24:39;;;;;;;11.55;6.78;;;12.70;1.00;;;;;;5053625;28;20032;-71
2024/02/29 07:27:05;;;;;;;14.50;7.18;;;12.70;1.00;;;;;;5053460;28;20464;-71
2024/02/29 07:29:30;;;;;;;12.18;6.93;;;13.00;1.00;;;;;;5053157;28;20271;-70
2024/02/29 07:31:56;;;;;;;10.98;6.88;;;13.50;1.00;;;;;;5053388;28;20052;-70
2024/02/29 07:34:21;;;;;;;11.55;6.47;;;13.40;1.00;;;;;;5053405;28;20035;-71
2024/02/29 07:36:48;;;;;;;13.00;6.00;;;13.10;1.00;;;;;;5053394;28;20117;-71
2024/02/29 07:39:14;;;;;;;11.00;6.72;;;12.70;1.00;;;;;;5052894;28;20017;-70
2024/02/29 07:41:40;;;;;;;9.00;5.57;;;12.00;1.00;;;;;;5053172;28;20029;-71
2024/02/29 07:44:05;;;;;;;12.57;6.05;;;11.90;1.00;;;;;;5052754;28;20028;-71
2024/02/29 07:46:32;;;;;;;10.68;5.80;;;11.60;1.00;;;;;;5053195;28;20036;-72
2024/02/29 07:48:58;;;;;;;12.88;5.55;;;11.40;1.00;;;;;;5052633;28;20052;-71
2024/02/29 07:51:24;;;;;;;9.95;5.47;;;11.30;1.00;;;;;;5052618;28;20074;-72
2024/02/29 07:53:50;;;;;;;11.75;5.18;;;11.50;1.00;;;;;;5053010;28;20025;-71
2024/02/29 07:56:15;;;;;;;9.50;5.40;;;11.30;1.00;;;;;;5052611;28;20043;-71
2024/02/29 07:58:41;;;;;;;9.90;5.55;;;11.30;1.00;;;;;;5052904;28;20033;-71
2024/02/29 08:01:06;;;;;;;10.07;5.40;;;11.30;1.00;;;;;;5053048;28;20036;-72
2024/02/29 08:03:32;;;;;;;9.63;5.10;;;11.50;1.00;;;;;;5053297;28;20033;-71
2024/02/29 08:05:58;;;;;;;7.22;4.85;;;11.70;1.00;;;;;;5052939;28;20037;-72
2024/02/29 08:08:23;;;;;;;9.20;5.18;;;12.30;1.00;;;;;;5052775;28;20032;-72
2024/02/29 08:10:49;;;;;;;9.02;4.88;;;12.50;1.00;;;;;;5053063;28;20025;-72
2024/02/29 08:13:14;;;;;;;6.85;4.30;;;12.50;1.00;;;;;;5053052;28;20525;-72
2024/02/29 08:15:40;;;;;;;12.10;4.78;;;12.30;1.00;;;;;;5052448;28;20033;-72
2024/02/29 08:18:07;;;;;;;7.40;4.38;;;12.70;1.00;;;;;;5053133;28;20110;-72
2024/02/29 08:20:33;;;;;;;7.88;4.70;;;12.80;1.00;;;;;;5053062;28;20116;-72
2024/02/29 08:22:59;;;;;;;8.88;4.57;;;12.10;1.00;;;;;;5052583;28;20064;-72
2024/02/29 08:25:26;;;;;;;8.70;4.45;;;12.50;1.00;;;;;;5052441;28;20120;-71
2024/02/29 08:27:52;;;;;;;8.20;4.05;;;12.20;1.00;;;;;;5052829;28;20099;-72
2024/02/29 08:30:18;;;;;;;7.95;4.78;;;12.70;1.00;;;;;;5052582;28;20032;-72
2024/02/29 08:32:44;;;;;;;6.95;4.07;;;13.20;1.00;;;;;;5052479;28;20468;-71
2024/02/29 08:35:10;;;;;;;7.22;3.83;;;13.40;1.00;;;;;;5052610;28;20032;-71
2024/02/29 08:37:35;;;;;;;6.20;3.58;;;13.30;1.00;;;;;;5052681;28;20029;-71
2024/02/29 08:40:04;;;;;;;5.75;3.50;;;12.80;1.00;;;;;;5051121;28;20098;-71
2024/02/29 08:42:30;;;;;;;9.73;3.80;;;13.50;1.00;;;;;;5051428;28;20021;-71
2024/02/29 08:44:56;;;;;;;6.63;3.13;;;13.20;1.00;;;;;;5051232;28;20025;-72
2024/02/29 08:47:22;;;;;;;9.13;3.65;;;13.70;1.00;;;;;;5052442;28;20414;-72
2024/02/29 08:49:48;;;;;;;5.50;3.15;;;13.80;1.00;;;;;;5052557;28;20119;-72
2024/02/29 08:52:14;;;;;;;7.00;3.00;;;13.10;1.00;;;;;;5052687;28;20025;-71
2024/02/29 08:54:39;;;;;;;5.20;2.88;;;13.20;1.00;;;;;;5052718;28;20372;-71
2024/02/29 08:57:07;;;;;;;4.82;3.03;;;13.20;1.00;;;;;;5052163;28;20075;-72
2024/02/29 08:59:32;;;;;;;3.58;2.70;;;13.30;1.00;;;;;;5052130;28;20056;-71
2024/02/29 09:01:59;;;;;;;4.00;2.70;;;12.70;1.00;;;;;;5052117;28;20065;-71
2024/02/29 09:04:25;;;;;;;4.00;2.20;;;13.10;1.00;;;;;;5051940;28;20036;-72
2024/02/29 09:06:50;;;;;;;4.80;2.72;;;13.50;1.00;;;;;;5051755;28;20482;-72
2024/02/29 09:09:16;;;;;;;5.07;2.35;;;13.90;1.00;;;;;;5054613;28;20033;-71
2024/02/29 09:11:42;;;;;;;5.45;2.28;;;14.00;1.00;;;;;;5055918;28;20025;-72
2024/02/29 09:14:08;;;;;;;3.53;2.50;;;14.40;1.00;;;;;;5056100;28;20395;-72
2024/02/29 09:16:34;;;;;;;8.98;2.80;;;14.70;1.00;;;;;;5056076;28;20033;-72
2024/02/29 09:19:00;;;;;;;3.38;2.47;;;14.70;1.00;;;;;;5055616;28;20556;-72
2024/02/29 09:21:26;;;;;;;3.83;2.47;;;15.10;1.00;;;;;;5055969;28;20033;-72
2024/02/29 09:23:51;;;;;;;3.72;2.45;;;15.50;7.50;;;;;;5055943;28;20033;-72
2024/02/29 09:26:18;;;;;;;3.08;2.40;;;15.80;1.00;;;;;;5055751;28;20041;-72
2024/02/29 09:28:44;;;;;;;4.50;2.28;;;15.60;1.00;;;;;;5055153;28;20090;-72
2024/02/29 09:31:12;;;;;;;5.28;2.70;;;15.40;1.00;;;;;;5055847;28;20119;-72
2024/02/29 09:33:38;;;;;;;4.32;2.28;;;15.40;1.00;;;;;;5055509;28;20429;-72
2024/02/29 09:36:08;;;;;;;4.93;2.42;;;15.30;1.00;;;;;;5055332;28;20025;-72
2024/02/29 09:38:33;;;;;;;5.10;2.50;;;14.60;1.00;;;;;;5055611;28;20025;-71
2024/02/29 09:40:59;;;;;;;2.58;2.03;;;14.70;1.00;;;;;;5055791;28;20502;-72
2024/02/29 09:43:26;;;;;;;2.85;2.10;;;14.90;1.00;;;;;;5055076;28;20025;-72
2024/02/29 09:45:54;;;;;;;3.55;1.92;;;14.60;1.00;;;;;;5055529;28;20483;-72
2024/02/29 09:48:20;;;;;;;4.07;2.40;;;14.20;1.00;;;;;;5055062;28;20450;-71
2024/02/29 09:50:46;;;;;;;4.70;2.45;;;14.30;1.00;;;;;;5055074;28;20036;-71
2024/02/29 09:53:15;;;;;;;2.72;2.20;;;14.10;1.00;;;;;;5054716;28;20398;-71
2024/02/29 09:55:41;;;;;;;2.55;2.00;;;14.20;1.00;;;;;;5055167;28;20047;-71
2024/02/29 09:58:08;;;;;;;5.45;2.20;;;14.60;1.00;;;;;;5055304;28;20494;-72
2024/02/29 10:00:33;;;;;;;3.42;2.28;;;14.40;1.00;;;;;;5055360;28;20486;-71
2024/02/29 10:03:00;;;;;;;4.25;2.08;;;14.10;1.00;;;;;;5055051;28;20029;-71
2024/02/29 10:05:26;;;;;;;2.85;2.10;;;14.40;1.00;;;;;;5054990;28;20067;-71
2024/02/29 10:07:54;;;;;;;4.40;2.30;;;15.00;1.00;;;;;;5054882;28;20061;-72
2024/02/29 10:10:21;;;;;;;5.57;1.98;;;15.00;1.00;;;;;;5054734;28;20075;-72
2024/02/29 10:12:54;;;;;;;2.15;1.73;;;14.90;1.00;;;;;;5054709;28;20021;-72
2024/02/29 10:15:25;;;;;;;2.78;2.05;;;15.70;1.00;;;;;;5054745;28;20021;-72
2024/02/29 10:17:51;;;;;;;2.70;1.92;;;16.20;1.00;;;;;;5054269;28;20035;-73
2024/02/29 10:20:20;;;;;;;1.95;1.55;;;15.90;1.00;;;;;;5054553;28;20111;-73
2024/02/29 10:22:45;;;;;;;3.00;1.95;;;15.90;1.00;;;;;;5054143;28;20102;-72
2024/02/29 10:25:12;;;;;;;2.85;2.00;;;14.90;1.00;;;;;;5054242;28;20479;-72
2024/02/29 10:27:39;;;;;;;3.60;1.95;;;15.30;1.00;;;;;;5054218;28;20111;-72
2024/02/29 10:30:10;;;;;;;2.90;2.10;;;15.10;1.00;;;;;;5054552;28;20040;-71
2024/02/29 10:32:36;;;;;;;3.28;1.88;;;15.50;1.00;;;;;;5054577;28;20017;-72
2024/02/29 10:35:18;;;;;;;1.95;1.60;;;15.80;1.00;;;;;;5054729;28;20471;-72
2024/02/29 10:37:46;;;;;;;3.30;1.88;;;15.60;1.00;;;;;;5054566;28;20391;-72
2024/02/29 10:40:12;;;;;;;4.93;1.95;;;15.90;1.00;;;;;;5054108;28;20067;-72
2024/02/29 10:42:39;;;;;;;1.90;1.60;;;15.10;1.00;;;;;;5054316;28;20124;-71
2024/02/29 10:45:14;;;;;;;2.90;1.80;;;14.60;1.00;;;;;;5054359;28;20028;-72
2024/02/29 10:47:49;;;;;;;2.70;2.00;;;14.30;1.00;;;;;;5054089;28;20063;-72
2024/02/29 10:50:25;;;;;;;2.28;1.65;;;13.90;1.00;;;;;;5053311;28;20028;-72
2024/02/29 10:53:01;;;;;;;2.22;1.80;;;14.10;1.00;;;;;;5054008;28;20483;-72
2024/02/29 10:55:30;;;;;;;2.25;1.55;;;14.10;1.00;;;;;;5054115;28;20056;-72
2024/02/29 10:58:09;;;;;;;3.10;1.90;;;14.00;1.00;;;;;;5053678;28;20144;-71
2024/02/29 11:00:36;;;;;;;2.13;1.73;;;14.00;1.00;;;;;;5054032;28;20540;-72
2024/02/29 11:03:04;;;;;;;3.33;1.45;;;14.00;1.00;;;;;;5053810;28;20517;-72
2024/02/29 11:05:29;;;;;;;1.88;1.60;;;14.10;1.00;;;;;;5053997;28;20031;-72
2024/02/29 11:07:55;;;;;;;2.33;1.73;;;14.00;1.00;;;;;;5054333;28;20119;-72
2024/02/29 11:10:22;;;;;;;2.45;1.58;;;13.80;1.00;;;;;;5053651;28;20028;-71
2024/02/29 11:12:49;;;;;;;2.10;1.60;;;14.20;1.00;;;;;;5054047;28;20029;-72
2024/02/29 11:15:22;;;;;;;2.85;1.70;;;14.10;1.00;;;;;;5053810;28;20448;-72
2024/02/29 11:17:48;;;;;;;1.75;1.48;;;13.90;1.00;;;;;;5053600;28;20028;-72
2024/02/29 11:20:20;;;;;;;4.97;2.20;;;13.90;99.90;;;;;;5053544;28;20479;-72
2024/02/29 11:22:45;;;;;;;2.35;1.50;;;14.20;69.10;;;;;;5053528;28;20032;-71
2024/02/29 11:25:18;;;;;;;2.78;1.58;;;14.30;99.90;;;;;;5053092;28;20052;-72
2024/02/29 11:27:46;;;;;;;;;;;14.00;1.00;;;;;;5053851;28;20089;-72
2024/02/29 11:30:17;;;;;;;3.97;1.80;;;14.00;1.00;;;;;;5052664;28;19924;-72
2024/02/29 11:32:42;;;;;;;3.53;1.40;;;13.90;1.00;;;;;;5038569;28;20037;-72
2024/02/29 11:35:08;;;;;;;2.15;1.48;;;14.10;99.90;;;;;;5053219;28;20090;-72
2024/02/29 11:37:34;;;;;;;1.75;1.55;;;14.10;99.90;;;;;;5052891;28;20489;-72
2024/02/29 11:40:04;;;;;;;3.25;1.60;;;13.90;99.90;;;;;;5052960;28;20047;-72
2024/02/29 11:42:29;;;;;;;3.35;1.50;;;14.00;97.40;;;;;;5053463;28;20029;-72
2024/02/29 11:44:55;;;;;;;4.45;1.23;;;14.20;1.10;;;;;;5054958;28;20120;-71
2024/02/29 11:47:21;;;;;;;2.00;1.00;;;14.20;1.00;;;;;;5053975;28;20059;-72
2024/02/29 11:49:47;;;;;;;2.13;1.20;;;14.10;99.90;;;;;;5052908;28;20032;-72
2024/02/29 11:52:15;;;;;;;1.60;1.20;;;14.00;10.60;;;;;;5052886;28;20064;-72
2024/02/29 11:54:42;;;;;;;1.67;1.40;;;14.00;1.00;;;;;;5052216;28;20021;-71
2024/02/29 11:57:07;;;;;;;2.08;1.50;;;14.40;99.90;;;;;;5053211;28;20079;-71
2024/02/29 11:59:33;;;;;;;2.55;1.60;;;14.30;99.90;;;;;;5052925;28;20029;-72
2024/02/29 12:01:58;;;;;;;2.97;1.50;;;14.10;99.90;;;;;;5053125;28;20047;-72
2024/02/29 12:04:24;;;;;;;3.58;1.73;;;14.40;99.90;;;;;;5053153;28;20112;-72
2024/02/29 12:06:50;;;;;;;2.55;1.45;;;14.30;99.90;;;;;;5052887;28;20033;-72
2024/02/29 12:09:16;;;;;;;4.60;1.80;;;14.30;99.90;;;;;;5055044;28;20025;-72
2024/02/29 12:11:43;;;;;;;1.95;1.52;;;14.30;99.90;;;;;;5052654;28;20029;-72
2024/02/29 12:14:09;;;;;;;2.30;1.67;;;14.10;99.90;;;;;;5053049;28;20028;-72
2024/02/29 12:16:36;;;;;;;3.00;1.80;;;14.20;99.90;;;;;;5052949;28;20442;-71
2024/02/29 12:19:02;;;;;;;2.45;1.65;;;14.10;99.90;;;;;;5053259;28;20137;-72
2024/02/29 12:21:28;;;;;;;6.38;2.22;;;14.00;99.90;;;;;;5052855;28;20556;-71
2024/02/29 12:23:55;;;;;;;2.35;1.85;;;13.90;99.90;;;;;;5052815;28;20033;-71
2024/02/29 12:26:21;;;;;;;2.05;1.83;;;13.60;99.90;;;;;;5040993;28;20025;-71
2024/02/29 12:28:47;;;;;;;2.45;1.65;;;13.40;99.90;;;;;;5052791;28;20494;-71
2024/02/29 12:31:14;;;;;;;5.70;1.70;;;13.50;99.90;;;;;;5052293;28;20033;-71
2024/02/29 12:33:42;;;;;;;5.70;1.90;;;13.70;99.90;;;;;;5052303;28;20399;-72
2024/02/29 12:36:08;;;;;;;2.85;1.80;;;13.60;99.90;;;;;;5052365;28;20025;-71
2024/02/29 12:38:34;;;;;;;2.28;1.88;;;13.50;99.90;;;;;;5052793;28;20027;-71
2024/02/29 12:41:02;;;;;;;6.22;2.20;;;13.40;99.90;;;;;;5052588;28;20467;-72